createdAt,value
2022-10-27T00:00:33.441Z,13.55
2022-10-27T00:03:00.148Z,13.52
2022-10-27T00:05:26.659Z,13.52
2022-10-27T00:07:53.267Z,13.49
2022-10-27T00:10:20.021Z,13.48
2022-10-27T00:12:46.616Z,13.47
2022-10-27T00:15:13.969Z,13.45
2022-10-27T00:17:40.446Z,13.44
2022-10-27T00:20:07.853Z,13.44
2022-10-27T00:22:34.692Z,13.43
2022-10-27T00:25:01.175Z,13.44
2022-10-27T00:27:28.397Z,13.44
2022-10-27T00:29:55.450Z,13.44
2022-10-27T00:32:21.916Z,13.44
2022-10-27T00:34:48.317Z,13.46
2022-10-27T00:37:14.772Z,13.48
2022-10-27T00:39:41.187Z,13.49
2022-10-27T00:42:11.987Z,13.50
2022-10-27T00:44:43.733Z,13.50
2022-10-27T00:47:10.103Z,13.51
2022-10-27T00:49:45.988Z,13.49
2022-10-27T00:52:20.891Z,13.55
2022-10-27T00:54:47.544Z,13.60
2022-10-27T00:57:14.238Z,13.62
2022-10-27T00:59:41.666Z,13.65
2022-10-27T01:02:10.164Z,13.62
2022-10-27T01:04:46.585Z,13.69
2022-10-27T01:07:16.061Z,13.71
2022-10-27T01:09:43.672Z,13.72
2022-10-27T01:12:10.179Z,13.73
2022-10-27T01:14:37.340Z,13.72
2022-10-27T01:17:14.278Z,13.69
2022-10-27T01:20:18.226Z,13.74
2022-10-27T01:22:59.455Z,13.74
2022-10-27T01:25:43.248Z,13.73
2022-10-27T01:28:43.037Z,13.67
2022-10-27T01:31:11.557Z,13.70
2022-10-27T01:33:49.680Z,13.71
2022-10-27T01:36:24.279Z,13.70
2022-10-27T01:39:16.115Z,13.71
2022-10-27T01:41:57.876Z,13.68
2022-10-27T01:44:40.979Z,13.72
2022-10-27T01:47:10.224Z,13.72
2022-10-27T01:49:38.191Z,13.73
2022-10-27T01:52:28.706Z,13.69
2022-10-27T01:54:57.749Z,13.71
2022-10-27T01:57:36.596Z,13.76
2022-10-27T02:00:06.380Z,13.77
2022-10-27T02:03:04.289Z,13.78
2022-10-27T02:06:10.347Z,13.82
2022-10-27T02:08:51.191Z,13.84
2022-10-27T02:11:17.660Z,13.88
2022-10-27T02:13:46.543Z,13.90
2022-10-27T02:16:23.072Z,13.88
2022-10-27T02:18:54.600Z,13.92
2022-10-27T02:21:21.680Z,14.03
2022-10-27T02:23:48.222Z,14.07
2022-10-27T02:26:33.198Z,14.06
2022-10-27T02:29:03.696Z,14.16
2022-10-27T02:31:41.527Z,14.20
2022-10-27T02:34:09.267Z,14.27
2022-10-27T02:36:35.878Z,14.32
2022-10-27T02:39:02.489Z,14.38
2022-10-27T02:41:29.010Z,14.43
2022-10-27T02:43:55.434Z,14.49
2022-10-27T02:46:21.830Z,14.55
2022-10-27T02:48:48.290Z,14.58
2022-10-27T02:51:14.691Z,14.64
2022-10-27T02:53:41.114Z,14.68
2022-10-27T02:56:07.767Z,14.71
2022-10-27T02:58:35.186Z,14.74
2022-10-27T03:01:01.775Z,14.77
2022-10-27T03:03:28.312Z,14.80
2022-10-27T03:05:54.737Z,14.82
2022-10-27T03:08:21.222Z,14.85
2022-10-27T03:10:47.655Z,14.84
2022-10-27T03:13:14.069Z,14.85
2022-10-27T03:15:40.548Z,14.86
2022-10-27T03:18:07.048Z,14.85
2022-10-27T03:20:33.486Z,14.85
2022-10-27T03:22:59.921Z,14.83
2022-10-27T03:25:26.359Z,14.83
2022-10-27T03:27:52.833Z,14.78
2022-10-27T03:30:19.669Z,14.79
2022-10-27T03:32:48.645Z,14.76
2022-10-27T03:35:17.041Z,14.75
2022-10-27T03:37:44.099Z,14.73
2022-10-27T03:40:11.647Z,14.72
2022-10-27T03:42:42.444Z,14.70
2022-10-27T03:45:12.169Z,14.69
2022-10-27T03:47:38.887Z,14.71
2022-10-27T03:50:05.820Z,14.69
2022-10-27T03:52:33.329Z,14.69
2022-10-27T03:55:00.316Z,14.68
2022-10-27T03:57:26.856Z,14.66
2022-10-27T03:59:53.327Z,14.67
2022-10-27T04:02:19.787Z,14.65
2022-10-27T04:04:46.267Z,14.63
2022-10-27T04:07:12.666Z,14.62
2022-10-27T04:09:39.094Z,14.61
2022-10-27T04:12:05.709Z,14.61
2022-10-27T04:14:32.157Z,14.60
2022-10-27T04:16:58.593Z,14.58
2022-10-27T04:19:25.075Z,14.56
2022-10-27T04:21:51.555Z,14.54
2022-10-27T04:24:17.945Z,14.54
2022-10-27T04:26:44.390Z,14.53
2022-10-27T04:29:10.802Z,14.51
2022-10-27T04:31:37.259Z,14.53
2022-10-27T04:34:03.682Z,14.54
2022-10-27T04:36:30.188Z,14.53
2022-10-27T04:38:56.725Z,14.54
2022-10-27T04:41:23.232Z,14.54
2022-10-27T04:43:52.866Z,14.55
2022-10-27T04:46:19.319Z,14.55
2022-10-27T04:48:45.746Z,14.56
2022-10-27T04:51:12.180Z,14.58
2022-10-27T04:53:38.616Z,14.59
2022-10-27T04:56:05.461Z,14.61
2022-10-27T04:58:32.255Z,14.62
2022-10-27T05:00:58.732Z,14.64
2022-10-27T05:03:25.120Z,14.66
2022-10-27T05:05:51.604Z,14.68
2022-10-27T05:08:17.998Z,14.69
2022-10-27T05:10:45.245Z,14.68
2022-10-27T05:13:11.672Z,14.70
2022-10-27T05:15:38.126Z,14.70
2022-10-27T05:18:06.849Z,14.72
2022-10-27T05:20:35.925Z,14.73
2022-10-27T05:23:02.325Z,14.72
2022-10-27T05:25:29.008Z,14.77
2022-10-27T05:28:06.055Z,14.80
2022-10-27T05:30:32.528Z,14.84
2022-10-27T05:32:58.961Z,14.87
2022-10-27T05:35:25.488Z,14.91
2022-10-27T05:37:52.208Z,14.94
2022-10-27T05:40:19.065Z,14.97
2022-10-27T05:42:50.257Z,14.99
2022-10-27T05:45:16.841Z,15.02
2022-10-27T05:47:43.255Z,15.05
2022-10-27T05:50:09.992Z,15.07
2022-10-27T05:52:36.440Z,15.08
2022-10-27T05:55:03.272Z,15.10
2022-10-27T05:57:29.705Z,15.11
2022-10-27T05:59:56.176Z,15.15
2022-10-27T06:02:22.683Z,15.18
2022-10-27T06:04:49.156Z,15.19
2022-10-27T06:07:15.641Z,15.21
2022-10-27T06:09:42.169Z,15.21
2022-10-27T06:12:08.596Z,15.24
2022-10-27T06:14:35.015Z,15.25
2022-10-27T06:17:01.430Z,15.23
2022-10-27T06:19:27.844Z,15.24
2022-10-27T06:21:54.265Z,15.23
2022-10-27T06:24:20.765Z,15.22
2022-10-27T06:26:47.214Z,15.21
2022-10-27T06:29:13.646Z,15.21
2022-10-27T06:31:40.232Z,15.23
2022-10-27T06:34:06.642Z,15.24
2022-10-27T06:36:33.131Z,15.25
2022-10-27T06:38:59.816Z,15.25
2022-10-27T06:41:26.306Z,15.26
2022-10-27T06:43:52.790Z,15.26
2022-10-27T06:46:19.698Z,15.27
2022-10-27T06:48:46.123Z,15.27
2022-10-27T06:51:12.544Z,15.27
2022-10-27T06:53:38.915Z,15.28
2022-10-27T06:56:05.519Z,15.30
2022-10-27T06:58:31.944Z,15.31
2022-10-27T07:01:00.097Z,15.28
2022-10-27T07:03:26.515Z,15.33
2022-10-27T07:05:52.944Z,15.33
2022-10-27T07:08:19.363Z,15.34
2022-10-27T07:10:45.951Z,15.35
2022-10-27T07:13:12.367Z,15.36
2022-10-27T07:15:38.802Z,15.36
2022-10-27T07:18:07.469Z,15.39
2022-10-27T07:20:35.680Z,15.41
2022-10-27T07:23:03.230Z,15.38
2022-10-27T07:25:31.638Z,15.44
2022-10-27T07:27:58.393Z,15.46
2022-10-27T07:30:28.594Z,15.45
2022-10-27T07:32:55.933Z,15.46
2022-10-27T07:35:22.873Z,15.48
2022-10-27T07:37:49.999Z,15.49
2022-10-27T07:40:18.763Z,15.49
2022-10-27T07:42:51.024Z,15.49
2022-10-27T07:45:20.700Z,15.44
2022-10-27T07:47:49.844Z,15.49
2022-10-27T07:50:17.945Z,15.49
2022-10-27T07:52:52.317Z,15.48
2022-10-27T07:55:22.788Z,15.48
2022-10-27T07:57:58.602Z,15.42
2022-10-27T08:00:25.262Z,15.44
2022-10-27T08:02:51.902Z,15.44
2022-10-27T08:05:18.706Z,15.42
2022-10-27T08:07:45.195Z,15.41
2022-10-27T08:10:11.867Z,15.42
2022-10-27T08:12:45.001Z,15.41
2022-10-27T08:15:12.209Z,15.42
2022-10-27T08:17:39.962Z,15.42
2022-10-27T08:20:08.672Z,15.42
2022-10-27T08:22:35.342Z,15.43
2022-10-27T08:25:04.729Z,15.42
2022-10-27T08:27:33.947Z,15.43
2022-10-27T08:30:00.407Z,15.44
2022-10-27T08:32:27.234Z,15.44
2022-10-27T08:34:53.697Z,15.43
2022-10-27T08:37:20.297Z,15.40
2022-10-27T08:39:46.711Z,15.41
2022-10-27T08:42:30.771Z,15.38
2022-10-27T08:45:05.333Z,15.39
2022-10-27T08:47:31.841Z,15.38
2022-10-27T08:50:14.256Z,15.36
2022-10-27T08:52:52.906Z,15.38
2022-10-27T08:55:27.030Z,15.33
2022-10-27T08:58:09.784Z,15.39
2022-10-27T09:00:50.068Z,15.41
2022-10-27T09:03:25.432Z,15.43
2022-10-27T09:06:06.121Z,15.41
2022-10-27T09:09:07.387Z,15.48
2022-10-27T09:11:58.996Z,15.51
2022-10-27T09:14:49.776Z,15.54
2022-10-27T09:17:25.647Z,15.53
2022-10-27T09:20:30.896Z,15.61
2022-10-27T09:23:00.050Z,15.66
2022-10-27T09:25:27.462Z,15.70
2022-10-27T09:27:55.910Z,15.75
2022-10-27T09:30:22.778Z,15.80
2022-10-27T09:32:51.521Z,15.88
2022-10-27T09:35:23.501Z,15.93
2022-10-27T09:37:51.132Z,15.99
2022-10-27T09:40:20.745Z,16.05
2022-10-27T09:42:50.782Z,16.09
2022-10-27T09:45:20.676Z,16.21
2022-10-27T09:47:51.283Z,16.28
2022-10-27T09:50:22.881Z,16.37
2022-10-27T09:52:50.246Z,16.44
2022-10-27T09:55:18.187Z,16.53
2022-10-27T09:57:47.701Z,16.60
2022-10-27T10:00:17.117Z,16.66
2022-10-27T10:05:36.784Z,16.79
2022-10-27T10:08:21.947Z,16.82
2022-10-27T10:11:31.469Z,16.80
2022-10-27T10:14:00.468Z,16.91
2022-10-27T10:16:28.854Z,16.99
2022-10-27T10:19:07.453Z,17.13
2022-10-27T10:21:46.993Z,17.27
2022-10-27T10:24:18.607Z,17.49
2022-10-27T10:26:47.930Z,17.65
2022-10-27T10:29:21.475Z,17.72
2022-10-27T10:31:47.938Z,17.88
2022-10-27T10:34:32.032Z,18.00
2022-10-27T10:36:58.842Z,18.11
2022-10-27T10:39:34.781Z,18.18
2022-10-27T10:42:10.084Z,18.32
2022-10-27T10:44:37.926Z,18.38
2022-10-27T10:47:06.222Z,18.45
2022-10-27T10:49:37.277Z,18.53
2022-10-27T10:52:15.524Z,18.59
2022-10-27T10:54:43.025Z,18.68
2022-10-27T10:57:46.643Z,18.73
2022-10-27T11:00:18.587Z,18.80
2022-10-27T11:03:00.278Z,18.84
2022-10-27T11:05:35.194Z,18.91
2022-10-27T11:08:04.125Z,18.94
2022-10-27T11:10:37.578Z,18.92
2022-10-27T11:13:19.400Z,18.93
2022-10-27T11:15:54.554Z,18.97
2022-10-27T11:18:20.946Z,18.98
2022-10-27T11:20:52.927Z,18.98
2022-10-27T11:23:38.365Z,18.99
2022-10-27T11:26:05.577Z,19.03
2022-10-27T11:28:53.443Z,19.02
2022-10-27T11:31:46.185Z,19.06
2022-10-27T11:34:26.396Z,19.02
2022-10-27T11:37:23.313Z,19.05
2022-10-27T11:39:59.175Z,19.09
2022-10-27T11:42:54.381Z,19.13
2022-10-27T11:45:28.592Z,19.21
2022-10-27T11:48:02.618Z,19.28
2022-10-27T11:50:40.658Z,19.37
2022-10-27T11:53:12.400Z,19.43
2022-10-27T11:56:03.235Z,19.48
2022-10-27T11:58:45.462Z,19.47
2022-10-27T12:01:14.665Z,19.58
2022-10-27T12:04:06.542Z,19.63
2022-10-27T12:06:42.558Z,19.72
2022-10-27T12:09:45.766Z,19.80
2022-10-27T12:12:24.778Z,19.84
2022-10-27T12:15:30.583Z,19.90
2022-10-27T12:18:12.595Z,19.95
2022-10-27T12:20:50.322Z,19.99
2022-10-27T12:23:24.662Z,20.02
2022-10-27T12:26:07.423Z,20.05
2022-10-27T12:28:35.794Z,20.14
2022-10-27T12:31:07.352Z,20.24
2022-10-27T12:33:40.910Z,20.29
2022-10-27T12:36:14.653Z,20.44
2022-10-27T12:39:27.824Z,20.53
2022-10-27T12:42:15.962Z,20.58
2022-10-27T12:44:48.084Z,20.59
2022-10-27T12:47:26.411Z,20.58
2022-10-27T12:50:11.170Z,20.54
2022-10-27T12:52:56.378Z,20.48
2022-10-27T12:55:32.711Z,20.39
2022-10-27T12:58:03.458Z,20.24
2022-10-27T13:00:59.860Z,20.20
2022-10-27T13:03:58.262Z,20.10
2022-10-27T13:06:43.455Z,20.03
2022-10-27T13:09:32.260Z,19.98
2022-10-27T13:12:20.722Z,19.92
2022-10-27T13:15:02.493Z,19.88
2022-10-27T13:17:58.706Z,19.84
2022-10-27T13:20:38.388Z,19.81
2022-10-27T13:23:22.973Z,19.87
2022-10-27T13:26:27.613Z,20.02
2022-10-27T13:29:34.121Z,20.18
2022-10-27T13:32:19.743Z,20.35
2022-10-27T13:35:01.171Z,20.52
2022-10-27T13:37:47.624Z,20.65
2022-10-27T13:40:20.110Z,20.81
2022-10-27T13:42:47.629Z,20.99
2022-10-27T13:45:29.335Z,21.23
2022-10-27T13:48:07.918Z,21.50
2022-10-27T13:50:36.478Z,21.67
2022-10-27T13:53:14.890Z,21.91
2022-10-27T13:55:51.791Z,22.07
2022-10-27T13:58:18.185Z,22.25
2022-10-27T14:01:30.054Z,22.35
2022-10-27T14:04:11.590Z,22.43
2022-10-27T14:06:41.399Z,22.43
2022-10-27T14:09:16.764Z,22.58
2022-10-27T14:11:47.855Z,22.60
2022-10-27T14:14:23.644Z,22.64
2022-10-27T14:16:50.710Z,22.57
2022-10-27T14:19:32.688Z,22.45
2022-10-27T14:21:59.667Z,22.42
2022-10-27T14:24:49.846Z,22.36
2022-10-27T14:27:18.690Z,22.32
2022-10-27T14:29:45.471Z,22.32
2022-10-27T14:32:19.147Z,22.24
2022-10-27T14:34:46.116Z,22.21
2022-10-27T14:37:17.806Z,22.16
2022-10-27T14:39:47.110Z,22.25
2022-10-27T14:42:22.178Z,22.26
2022-10-27T14:44:56.233Z,22.33
2022-10-27T14:47:23.962Z,22.37
2022-10-27T14:50:01.830Z,22.26
2022-10-27T14:52:50.414Z,22.15
2022-10-27T14:55:19.083Z,22.04
2022-10-27T14:57:50.066Z,21.90
2022-10-27T15:00:35.576Z,21.85
2022-10-27T15:03:08.164Z,21.70
2022-10-27T15:05:40.207Z,21.53
2022-10-27T15:08:14.372Z,21.43
2022-10-27T15:10:43.779Z,21.28
2022-10-27T15:13:20.009Z,21.15
2022-10-27T15:15:48.649Z,21.07
2022-10-27T15:18:23.018Z,20.99
2022-10-27T15:20:50.702Z,20.90
2022-10-27T15:23:18.107Z,20.83
2022-10-27T15:25:47.886Z,20.77
2022-10-27T15:28:15.889Z,20.68
2022-10-27T15:30:43.477Z,20.64
2022-10-27T15:33:30.460Z,20.58
2022-10-27T15:36:09.095Z,20.55
2022-10-27T15:38:35.871Z,20.49
2022-10-27T15:41:17.353Z,20.44
2022-10-27T15:43:50.009Z,20.39
2022-10-27T15:46:39.505Z,20.31
2022-10-27T15:49:28.465Z,20.26
2022-10-27T15:52:02.795Z,20.15
2022-10-27T15:54:37.330Z,20.14
2022-10-27T15:57:25.791Z,20.07
2022-10-27T16:00:18.920Z,20.06
2022-10-27T16:02:53.927Z,20.01
2022-10-27T16:05:29.719Z,19.96
2022-10-27T16:08:00.722Z,19.91
2022-10-27T16:10:28.034Z,19.84
2022-10-27T16:12:55.532Z,19.75
2022-10-27T16:15:24.823Z,19.72
2022-10-27T16:17:56.730Z,19.65
2022-10-27T16:20:26.059Z,19.56
2022-10-27T16:22:52.872Z,19.51
2022-10-27T16:25:23.840Z,19.44
2022-10-27T16:27:50.340Z,19.36
2022-10-27T16:30:19.852Z,19.27
2022-10-27T16:32:48.636Z,19.22
2022-10-27T16:35:17.105Z,19.16
2022-10-27T16:37:43.616Z,19.09
2022-10-27T16:40:14.762Z,19.01
2022-10-27T16:42:51.127Z,18.93
2022-10-27T16:45:20.430Z,18.83
2022-10-27T16:47:49.867Z,18.82
2022-10-27T16:50:16.998Z,18.76
2022-10-27T16:52:43.594Z,18.71
2022-10-27T16:55:11.941Z,18.60
2022-10-27T16:57:41.008Z,18.58
2022-10-27T17:00:12.240Z,18.49
2022-10-27T17:02:38.758Z,18.48
2022-10-27T17:05:06.376Z,18.42
2022-10-27T17:07:33.430Z,18.36
2022-10-27T17:09:59.818Z,18.31
2022-10-27T17:12:27.677Z,18.25
2022-10-27T17:14:54.102Z,18.22
2022-10-27T17:17:20.614Z,18.10
2022-10-27T17:19:47.208Z,18.14
2022-10-27T17:22:13.805Z,18.13
2022-10-27T17:24:40.247Z,18.08
2022-10-27T17:27:06.724Z,18.06
2022-10-27T17:29:33.136Z,18.02
2022-10-27T17:31:59.581Z,18.01
2022-10-27T17:34:25.961Z,17.96
2022-10-27T17:36:52.427Z,17.95
2022-10-27T17:39:18.813Z,17.94
2022-10-27T17:41:45.249Z,17.93
2022-10-27T17:44:11.741Z,17.91
2022-10-27T17:46:38.222Z,17.92
2022-10-27T17:49:04.654Z,17.89
2022-10-27T17:51:32.864Z,17.89
2022-10-27T17:54:00.782Z,17.83
2022-10-27T17:56:31.199Z,17.86
2022-10-27T17:58:58.403Z,17.84
2022-10-27T18:01:27.682Z,17.83
2022-10-27T18:03:55.947Z,17.75
2022-10-27T18:06:23.716Z,17.79
2022-10-27T18:08:53.750Z,17.79
2022-10-27T18:11:23.372Z,17.74
2022-10-27T18:13:51.417Z,17.77
2022-10-27T18:16:24.296Z,17.69
2022-10-27T18:18:53.055Z,17.64
2022-10-27T18:21:20.049Z,17.70
2022-10-27T18:23:50.927Z,17.68
2022-10-27T18:26:17.994Z,17.67
2022-10-27T18:28:45.813Z,17.64
2022-10-27T18:31:13.132Z,17.64
2022-10-27T18:33:40.497Z,17.61
2022-10-27T18:36:12.408Z,17.60
2022-10-27T18:38:39.080Z,17.58
2022-10-27T18:41:08.617Z,17.55
2022-10-27T18:43:35.148Z,17.51
2022-10-27T18:46:04.096Z,17.50
2022-10-27T18:48:30.831Z,17.48
2022-10-27T18:50:59.468Z,17.44
2022-10-27T18:53:26.559Z,17.41
2022-10-27T18:55:53.717Z,17.38
2022-10-27T18:58:20.179Z,17.34
2022-10-27T19:00:46.781Z,17.32
2022-10-27T19:03:13.279Z,17.28
2022-10-27T19:05:39.676Z,17.24
2022-10-27T19:08:06.153Z,17.21
2022-10-27T19:10:32.851Z,17.17
2022-10-27T19:12:59.477Z,17.13
2022-10-27T19:15:25.917Z,17.10
2022-10-27T19:17:53.160Z,17.06
2022-10-27T19:20:20.027Z,17.03
2022-10-27T19:22:46.483Z,16.98
2022-10-27T19:25:12.926Z,16.96
2022-10-27T19:27:39.438Z,16.92
2022-10-27T19:30:06.368Z,16.91
2022-10-27T19:32:34.705Z,16.83
2022-10-27T19:35:01.489Z,16.86
2022-10-27T19:37:27.968Z,16.85
2022-10-27T19:39:54.374Z,16.83
2022-10-27T19:42:20.940Z,16.82
2022-10-27T19:44:49.535Z,16.79
2022-10-27T19:47:16.038Z,16.78
2022-10-27T19:49:42.452Z,16.76
2022-10-27T19:52:08.961Z,16.75
2022-10-27T19:54:35.387Z,16.74
2022-10-27T19:57:01.800Z,16.71
2022-10-27T19:59:28.235Z,16.70
2022-10-27T20:01:54.834Z,16.68
2022-10-27T20:04:21.485Z,16.66
2022-10-27T20:06:48.508Z,16.65
2022-10-27T20:09:20.630Z,16.62
2022-10-27T20:11:47.820Z,16.61
2022-10-27T20:14:15.045Z,16.57
2022-10-27T20:16:43.895Z,16.55
2022-10-27T20:19:18.796Z,16.51
2022-10-27T20:21:45.836Z,16.49
2022-10-27T20:24:12.592Z,16.48
2022-10-27T20:26:40.812Z,16.42
2022-10-27T20:29:07.332Z,16.39
2022-10-27T20:31:34.078Z,16.36
2022-10-27T20:34:00.529Z,16.32
2022-10-27T20:36:26.970Z,16.27
2022-10-27T20:38:53.483Z,16.24
2022-10-27T20:41:21.948Z,16.17
2022-10-27T20:43:52.069Z,16.20
2022-10-27T20:46:18.512Z,16.18
2022-10-27T20:48:44.939Z,16.14
2022-10-27T20:51:12.834Z,16.10
2022-10-27T20:53:40.422Z,16.10
2022-10-27T20:56:12.178Z,16.06
2022-10-27T20:58:38.639Z,15.98
2022-10-27T21:01:28.727Z,15.95
2022-10-27T21:04:02.318Z,15.92
2022-10-27T21:06:30.690Z,15.86
2022-10-27T21:08:59.061Z,15.81
2022-10-27T21:11:27.177Z,15.77
2022-10-27T21:13:55.783Z,15.73
2022-10-27T21:16:23.414Z,15.73
2022-10-27T21:18:51.919Z,15.72
2022-10-27T21:21:19.573Z,15.73
2022-10-27T21:23:46.371Z,15.72
2022-10-27T21:26:13.447Z,15.71
2022-10-27T21:28:40.439Z,15.70
2022-10-27T21:31:12.364Z,15.71
2022-10-27T21:33:40.252Z,15.73
2022-10-27T21:36:07.800Z,15.75
2022-10-27T21:38:34.185Z,15.76
2022-10-27T21:41:00.816Z,15.78
2022-10-27T21:43:28.007Z,15.79
2022-10-27T21:45:56.126Z,15.80
2022-10-27T21:48:23.504Z,15.83
2022-10-27T21:50:51.420Z,15.83
2022-10-27T21:53:19.075Z,15.84
2022-10-27T21:56:06.543Z,15.86
2022-10-27T21:58:35.043Z,15.84
2022-10-27T22:01:07.430Z,15.89
2022-10-27T22:03:34.609Z,15.91
2022-10-27T22:06:01.035Z,15.96
2022-10-27T22:08:27.627Z,15.98
2022-10-27T22:10:54.176Z,16.00
2022-10-27T22:13:20.873Z,16.03
2022-10-27T22:15:47.340Z,16.06
2022-10-27T22:18:13.775Z,16.08
2022-10-27T22:20:40.278Z,16.10
2022-10-27T22:23:06.805Z,16.12
2022-10-27T22:25:33.265Z,16.13
2022-10-27T22:27:59.722Z,16.15
2022-10-27T22:30:26.140Z,16.17
2022-10-27T22:32:52.769Z,16.18
2022-10-27T22:35:19.343Z,16.19
2022-10-27T22:37:45.818Z,16.21
2022-10-27T22:40:12.452Z,16.24
2022-10-27T22:42:38.863Z,16.25
2022-10-27T22:45:05.547Z,16.26
2022-10-27T22:47:31.984Z,16.27
2022-10-27T22:49:58.392Z,16.27
2022-10-27T22:52:24.852Z,16.27
2022-10-27T22:54:51.248Z,16.29
2022-10-27T22:57:17.678Z,16.28
2022-10-27T22:59:44.165Z,16.29
2022-10-27T23:02:10.741Z,16.28
2022-10-27T23:04:37.257Z,16.28
2022-10-27T23:07:03.749Z,16.28
2022-10-27T23:09:30.185Z,16.27
2022-10-27T23:11:56.666Z,16.28
2022-10-27T23:14:23.121Z,16.27
2022-10-27T23:16:49.619Z,16.27
2022-10-27T23:19:16.171Z,16.27
2022-10-27T23:21:42.761Z,16.26
2022-10-27T23:24:09.401Z,16.26
2022-10-27T23:26:38.523Z,16.26
2022-10-27T23:29:07.800Z,16.26
2022-10-27T23:31:34.983Z,16.24
2022-10-27T23:34:03.626Z,16.21
2022-10-27T23:36:31.891Z,16.25
2022-10-27T23:38:58.898Z,16.25
2022-10-27T23:41:25.567Z,16.24
2022-10-27T23:43:54.476Z,16.24
2022-10-27T23:46:22.328Z,16.23
2022-10-27T23:48:48.859Z,16.22
2022-10-27T23:51:15.687Z,16.20
2022-10-27T23:53:42.267Z,16.19
2022-10-27T23:56:11.034Z,16.17
2022-10-27T23:58:41.531Z,16.13
